Time;durP1;ratioP1;P1;durP2;ratioP2;P2;SDS_P1;SDS_P2;PMS_P1;PMS_P2;Temp;Humidity;BMP_temperature;BMP_pressure;BME280_temperature;BME280_humidity;BME280_pressure;Samples;Min_cycle;Max_cycle;Signal;HPM_P1;HPM_P2
2022/10/26 00:00:00;;;;;;;11.20;5.83;;;11.40;99.90;;;;;;5070149;28;20059;-77
2022/10/26 00:02:26;;;;;;;14.85;6.90;;;11.30;99.90;;;;;;5053946;28;20048;-77
2022/10/26 00:04:51;;;;;;;18.13;6.50;;;11.30;99.90;;;;;;5069756;28;20538;-77
2022/10/26 00:07:17;;;;;;;9.57;5.80;;;11.20;99.90;;;;;;5053720;28;20352;-77
2022/10/26 00:09:43;;;;;;;11.77;5.97;;;11.30;99.90;;;;;;5053784;28;20370;-77
2022/10/26 00:12:08;;;;;;;13.33;6.03;;;11.20;99.90;;;;;;5069785;28;20495;-77
2022/10/26 00:14:34;;;;;;;14.07;5.85;;;11.20;99.90;;;;;;5070507;28;20044;-77
2022/10/26 00:17:00;;;;;;;14.32;6.78;;;11.20;99.90;;;;;;5052742;28;20088;-76
2022/10/26 00:19:26;;;;;;;11.68;6.20;;;11.20;99.90;;;;;;5070385;28;20033;-76
2022/10/26 00:21:52;;;;;;;12.18;5.93;;;11.20;99.90;;;;;;5069666;28;20040;-77
2022/10/26 00:24:17;;;;;;;12.38;6.45;;;11.20;99.90;;;;;;5053065;28;20037;-77
2022/10/26 00:26:43;;;;;;;13.87;6.90;;;11.30;99.90;;;;;;5070180;28;20032;-77
2022/10/26 00:29:11;;;;;;;12.40;6.13;;;11.20;99.90;;;;;;5053040;28;20289;-77
2022/10/26 00:31:38;;;;;;;14.02;7.30;;;11.30;99.90;;;;;;5053153;28;20033;-77
2022/10/26 00:34:04;;;;;;;12.80;6.57;;;11.20;99.90;;;;;;5069459;28;20071;-77
2022/10/26 00:36:29;;;;;;;11.20;6.55;;;11.20;99.90;;;;;;5069516;28;20039;-77
2022/10/26 00:38:55;;;;;;;13.00;7.40;;;11.20;99.90;;;;;;5019874;28;20044;-77
2022/10/26 00:41:27;;;;;;;15.25;7.13;;;11.20;99.90;;;;;;5053384;28;20283;-76
2022/10/26 00:43:54;;;;;;;12.25;6.47;;;11.10;99.90;;;;;;5069217;28;20044;-77
2022/10/26 00:46:34;;;;;;;17.58;6.90;;;11.10;99.90;;;;;;5036527;28;20029;-77
2022/10/26 00:49:16;;;;;;;13.77;6.63;;;11.10;99.90;;;;;;5068992;28;20146;-77
2022/10/26 00:51:49;;;;;;;14.75;6.75;;;11.00;99.90;;;;;;5068276;28;20032;-77
2022/10/26 00:54:20;;;;;;;13.02;6.53;;;11.00;99.90;;;;;;5069274;28;20062;-76
2022/10/26 00:56:50;;;;;;;12.13;6.75;;;11.00;99.90;;;;;;5069771;28;20040;-77
2022/10/26 00:59:17;;;;;;;11.50;6.65;;;11.00;99.90;;;;;;5052680;28;20119;-77
2022/10/26 01:01:45;;;;;;;13.88;6.75;;;11.00;99.90;;;;;;5069576;28;20128;-77
2022/10/26 01:04:12;;;;;;;14.00;6.53;;;10.90;99.90;;;;;;5068601;28;20037;-76
2022/10/26 01:06:40;;;;;;;11.73;6.60;;;10.90;99.90;;;;;;5069407;28;20048;-77
2022/10/26 01:09:06;;;;;;;15.80;7.25;;;10.90;99.90;;;;;;5068801;28;20051;-76
2022/10/26 01:11:31;;;;;;;16.80;7.25;;;10.90;99.90;;;;;;5052966;28;20041;-77
2022/10/26 01:13:59;;;;;;;13.00;6.80;;;10.90;99.90;;;;;;5068985;28;20040;-77
2022/10/26 01:16:56;;;;;;;15.57;8.00;;;10.90;99.90;;;;;;5069373;28;20509;-76
2022/10/26 01:19:59;;;;;;;11.60;6.78;;;10.90;99.90;;;;;;5068643;28;20037;-77
2022/10/26 01:22:28;;;;;;;13.90;6.88;;;10.90;99.90;;;;;;5069266;28;20081;-77
2022/10/26 01:25:32;;;;;;;13.75;6.85;;;10.80;99.90;;;;;;5068921;28;20154;-76
2022/10/26 01:28:01;;;;;;;16.30;7.18;;;10.80;99.90;;;;;;5045250;28;20519;-77
2022/10/26 01:30:39;;;;;;;12.90;7.35;;;10.70;99.90;;;;;;5069669;28;20162;-77
2022/10/26 01:33:36;;;;;;;15.15;6.43;;;10.70;99.90;;;;;;5068600;28;20036;-76
2022/10/26 01:36:11;;;;;;;12.27;6.72;;;10.70;99.90;;;;;;5052014;28;20064;-76
2022/10/26 01:39:09;;;;;;;15.07;7.75;;;10.70;99.90;;;;;;5068244;28;20468;-76
2022/10/26 01:41:46;;;;;;;17.45;6.75;;;10.60;99.90;;;;;;5037744;28;20060;-76
2022/10/26 01:44:15;;;;;;;;;;;10.60;99.90;;;;;;5067024;28;20152;-76
2022/10/26 01:46:45;;;;;;;13.48;6.55;;;10.60;99.90;;;;;;5069086;28;19920;-76
2022/10/26 01:49:12;;;;;;;14.68;6.93;;;10.60;99.90;;;;;;5068725;28;20028;-76
2022/10/26 01:51:41;;;;;;;12.52;7.40;;;10.50;99.90;;;;;;5068839;28;20090;-76
2022/10/26 01:54:07;;;;;;;15.75;7.80;;;10.50;99.90;;;;;;5051769;28;20095;-76
2022/10/26 01:56:39;;;;;;;12.15;6.82;;;10.50;99.90;;;;;;5052182;28;20048;-76
2022/10/26 01:59:39;;;;;;;13.32;7.00;;;10.50;99.90;;;;;;5068457;28;20055;-76
2022/10/26 02:02:32;;;;;;;14.73;6.95;;;10.40;99.90;;;;;;5051005;28;20086;-76
2022/10/26 02:05:27;;;;;;;15.73;7.53;;;10.40;99.90;;;;;;5066674;28;20049;-76
2022/10/26 02:08:03;;;;;;;15.43;7.97;;;10.40;99.90;;;;;;5066698;28;20093;-77
2022/10/26 02:11:02;;;;;;;14.18;7.47;;;10.40;99.90;;;;;;5068950;28;20052;-76
2022/10/26 02:14:05;;;;;;;14.40;7.30;;;10.30;99.90;;;;;;5072588;28;20437;-76
2022/10/26 02:16:51;;;;;;;12.70;7.70;;;10.30;99.90;;;;;;5052143;28;20049;-77
2022/10/26 02:19:29;;;;;;;13.07;7.35;;;10.30;99.90;;;;;;5070417;28;20569;-76
2022/10/26 02:22:18;;;;;;;13.38;7.85;;;10.20;99.90;;;;;;5070707;28;20484;-77
2022/10/26 02:24:45;;;;;;;14.93;7.38;;;10.20;99.90;;;;;;5046489;28;20043;-76
2022/10/26 02:27:19;;;;;;;14.70;7.22;;;10.20;99.90;;;;;;5055195;28;20050;-76
2022/10/26 02:29:46;;;;;;;17.60;8.05;;;10.20;99.90;;;;;;5072116;28;20051;-76
2022/10/26 02:32:13;;;;;;;14.63;7.63;;;10.20;99.90;;;;;;5054863;28;20076;-76
2022/10/26 02:34:40;;;;;;;;;;;10.20;99.90;;;;;;5056029;28;20484;-76
2022/10/26 02:37:07;;;;;;;;;;;10.20;99.90;;;;;;5072000;28;19916;-76
2022/10/26 02:39:35;;;;;;;12.35;7.15;;;10.10;99.90;;;;;;5072204;28;19916;-76
2022/10/26 02:42:04;;;;;;;17.40;7.80;;;10.10;99.90;;;;;;5038583;28;20056;-76
2022/10/26 02:44:35;;;;;;;12.75;7.28;;;10.10;99.90;;;;;;5055280;28;20485;-76
2022/10/26 02:47:01;;;;;;;12.77;7.57;;;10.00;99.90;;;;;;5071145;28;20040;-77
2022/10/26 02:49:27;;;;;;;15.43;8.25;;;10.00;99.90;;;;;;5071755;28;20056;-77
2022/10/26 02:52:14;;;;;;;14.07;7.78;;;10.00;99.90;;;;;;5071635;28;20033;-76
2022/10/26 02:55:01;;;;;;;16.15;7.28;;;10.00;99.90;;;;;;5071762;28;20115;-76
2022/10/26 02:57:39;;;;;;;12.50;7.20;;;9.90;99.90;;;;;;5070039;28;20097;-77
2022/10/26 03:00:10;;;;;;;14.52;7.70;;;9.90;99.90;;;;;;5052818;28;20041;-76
2022/10/26 03:02:36;;;;;;;16.58;7.47;;;9.90;99.90;;;;;;5071656;28;20076;-76
2022/10/26 03:05:20;;;;;;;20.10;8.10;;;9.90;99.90;;;;;;5070805;28;20080;-76
2022/10/26 03:07:46;;;;;;;12.80;7.10;;;9.80;99.90;;;;;;5071652;28;20398;-76
2022/10/26 03:10:11;;;;;;;16.00;7.80;;;9.80;99.90;;;;;;5070796;28;20103;-76
2022/10/26 03:12:37;;;;;;;18.10;8.35;;;9.80;99.90;;;;;;5070447;28;20354;-76
2022/10/26 03:15:04;;;;;;;17.00;7.88;;;9.70;99.90;;;;;;5069783;28;20047;-76
2022/10/26 03:17:30;;;;;;;;;;;9.70;99.90;;;;;;5070549;28;20116;-76
2022/10/26 03:19:55;;;;;;;18.33;8.25;;;9.70;99.90;;;;;;5070250;28;20027;-76
2022/10/26 03:22:22;;;;;;;14.50;7.87;;;9.70;99.90;;;;;;5070521;28;20040;-76
2022/10/26 03:24:47;;;;;;;16.15;8.55;;;9.70;99.90;;;;;;5070783;28;20779;-76
2022/10/26 03:27:14;;;;;;;14.60;7.97;;;9.70;99.90;;;;;;5070652;28;20047;-76
2022/10/26 03:29:39;;;;;;;17.63;8.00;;;9.60;99.90;;;;;;5070978;28;20496;-76
2022/10/26 03:32:06;;;;;;;18.93;8.07;;;9.60;99.90;;;;;;5053755;28;20044;-76
2022/10/26 03:34:31;;;;;;;18.23;8.52;;;9.70;99.90;;;;;;5070742;28;20275;-76
2022/10/26 03:36:57;;;;;;;17.05;8.73;;;9.60;99.90;;;;;;5070619;28;20063;-76
2022/10/26 03:39:23;;;;;;;15.07;7.97;;;9.60;99.90;;;;;;5053708;28;20044;-76
2022/10/26 03:41:49;;;;;;;14.40;7.67;;;9.60;99.90;;;;;;5054419;28;20040;-76
2022/10/26 03:44:14;;;;;;;15.07;8.10;;;9.60;99.90;;;;;;5070026;28;20301;-76
2022/10/26 03:46:43;;;;;;;14.20;8.20;;;9.60;99.90;;;;;;5070577;28;20289;-76
2022/10/26 03:49:09;;;;;;;17.55;8.93;;;9.60;99.90;;;;;;5053784;28;20408;-76
2022/10/26 03:51:34;;;;;;;14.07;8.03;;;9.60;99.90;;;;;;5070697;28;20036;-77
2022/10/26 03:54:00;;;;;;;15.47;9.27;;;9.60;99.90;;;;;;5070710;28;20044;-76
2022/10/26 03:56:26;;;;;;;16.50;9.00;;;9.60;99.90;;;;;;5070394;28;20040;-76
2022/10/26 03:58:51;;;;;;;17.45;8.82;;;9.60;99.90;;;;;;5020773;28;20044;-76
2022/10/26 04:01:17;;;;;;;17.17;9.03;;;9.60;99.90;;;;;;5070413;28;20597;-76
2022/10/26 04:03:43;;;;;;;19.10;9.63;;;9.60;99.90;;;;;;5036593;28;20341;-76
2022/10/26 04:06:08;;;;;;;16.30;9.53;;;9.60;99.90;;;;;;5052903;28;20294;-76
2022/10/26 04:08:34;;;;;;;16.63;9.53;;;9.60;99.90;;;;;;5054389;28;20294;-76
2022/10/26 04:11:00;;;;;;;16.42;8.82;;;9.60;99.90;;;;;;5053730;28;20036;-77
2022/10/26 04:13:25;;;;;;;19.42;10.85;;;9.50;99.90;;;;;;5053303;28;20495;-77
2022/10/26 04:15:51;;;;;;;19.37;10.47;;;9.50;99.90;;;;;;5053543;28;20472;-78
2022/10/26 04:18:17;;;;;;;19.93;10.50;;;9.50;99.90;;;;;;5053189;28;20414;-76
2022/10/26 04:20:43;;;;;;;20.27;10.77;;;9.50;99.90;;;;;;5037112;28;20279;-76
2022/10/26 04:23:14;;;;;;;22.75;11.32;;;9.50;99.90;;;;;;5069514;28;20045;-77
2022/10/26 04:25:39;;;;;;;22.52;11.10;;;9.40;99.90;;;;;;5069807;28;20059;-76
2022/10/26 04:28:06;;;;;;;18.40;10.70;;;9.50;99.90;;;;;;5069731;28;20361;-76
2022/10/26 04:30:34;;;;;;;22.13;12.48;;;9.40;99.90;;;;;;5053337;28;20299;-76
2022/10/26 04:32:59;;;;;;;21.27;12.10;;;9.50;99.90;;;;;;5069751;28;20083;-75
2022/10/26 04:35:26;;;;;;;23.38;11.13;;;9.50;99.90;;;;;;5069070;28;20473;-75
2022/10/26 04:37:59;;;;;;;24.58;11.90;;;9.60;99.90;;;;;;5069587;28;20039;-76
2022/10/26 04:40:26;;;;;;;19.05;10.95;;;9.50;99.90;;;;;;5052835;28;20097;-75
2022/10/26 04:42:52;;;;;;;23.10;11.80;;;9.50;99.90;;;;;;5069317;28;20098;-76
2022/10/26 04:45:18;;;;;;;23.08;12.68;;;9.60;99.90;;;;;;5069111;28;20032;-76
2022/10/26 04:47:44;;;;;;;22.03;12.37;;;9.60;99.90;;;;;;5052891;28;20101;-76
2022/10/26 04:50:11;;;;;;;22.00;11.57;;;9.60;99.90;;;;;;5052323;28;20067;-76
2022/10/26 04:52:37;;;;;;;27.00;13.30;;;9.60;99.90;;;;;;5069417;28;20286;-76
2022/10/26 04:55:04;;;;;;;25.98;13.57;;;9.70;99.90;;;;;;5053220;28;20036;-77
2022/10/26 04:57:32;;;;;;;23.63;12.02;;;9.70;99.90;;;;;;5069730;28;20033;-77
2022/10/26 04:59:59;;;;;;;21.83;12.40;;;9.70;99.90;;;;;;5069938;28;20519;-77
2022/10/26 05:02:25;;;;;;;24.27;12.82;;;9.70;99.90;;;;;;5052688;28;20032;-77
2022/10/26 05:04:50;;;;;;;24.95;11.57;;;9.70;99.90;;;;;;5069356;28;20048;-77
2022/10/26 05:07:16;;;;;;;20.70;11.85;;;9.70;99.90;;;;;;5069132;28;20044;-76
2022/10/26 05:09:42;;;;;;;23.93;12.40;;;9.70;99.90;;;;;;5069588;28;20130;-77
2022/10/26 05:12:07;;;;;;;26.70;12.85;;;9.70;99.90;;;;;;5069164;28;20043;-77
2022/10/26 05:14:33;;;;;;;21.93;12.47;;;9.70;99.90;;;;;;5053083;28;20174;-77
2022/10/26 05:16:59;;;;;;;25.37;11.73;;;9.70;99.90;;;;;;5069677;28;20047;-77
2022/10/26 05:19:24;;;;;;;23.40;12.15;;;9.70;99.90;;;;;;5068953;28;20540;-76
2022/10/26 05:21:52;;;;;;;23.70;12.43;;;9.70;99.90;;;;;;5052728;28;20040;-76
2022/10/26 05:24:18;;;;;;;23.50;12.65;;;9.80;99.90;;;;;;5035880;28;20361;-76
2022/10/26 05:26:44;;;;;;;21.40;12.50;;;9.80;99.90;;;;;;5053231;28;20037;-75
2022/10/26 05:29:09;;;;;;;25.15;12.65;;;9.80;99.90;;;;;;5068697;28;20102;-76
2022/10/26 05:31:35;;;;;;;22.30;12.80;;;9.90;99.90;;;;;;5052424;28;20042;-75
2022/10/26 05:34:01;;;;;;;22.70;12.10;;;10.10;99.90;;;;;;5052651;28;20044;-76
2022/10/26 05:36:26;;;;;;;23.40;12.07;;;9.80;99.90;;;;;;5052067;28;20424;-76
2022/10/26 05:38:52;;;;;;;28.03;12.33;;;9.80;99.90;;;;;;5069248;28;20037;-76
2022/10/26 05:41:18;;;;;;;26.80;12.10;;;9.90;99.90;;;;;;5068936;28;20051;-76
2022/10/26 05:43:47;;;;;;;24.33;12.15;;;9.80;99.90;;;;;;5068934;28;20036;-77
2022/10/26 05:46:12;;;;;;;26.48;12.98;;;9.80;99.90;;;;;;5069712;28;20381;-76
2022/10/26 05:48:38;;;;;;;23.97;12.87;;;9.90;99.90;;;;;;5056507;28;20048;-76
2022/10/26 05:51:04;;;;;;;24.43;12.33;;;9.90;99.90;;;;;;5056645;28;20036;-76
2022/10/26 05:53:29;;;;;;;24.80;12.15;;;9.90;99.90;;;;;;5053652;28;20111;-76
2022/10/26 05:55:56;;;;;;;23.73;12.40;;;9.90;99.90;;;;;;5073021;28;20047;-76
2022/10/26 05:58:22;;;;;;;22.48;12.70;;;9.90;99.90;;;;;;5072214;28;20282;-76
2022/10/26 06:01:10;;;;;;;19.95;12.07;;;9.90;99.90;;;;;;5072810;28;20062;-76
2022/10/26 06:03:46;;;;;;;25.77;13.38;;;10.00;99.90;;;;;;5053444;28;20119;-77
2022/10/26 06:06:12;;;;;;;25.85;12.43;;;10.00;99.90;;;;;;5072040;28;20171;-75
2022/10/26 06:08:38;;;;;;;22.92;12.02;;;10.00;99.90;;;;;;5072649;28;20111;-74
2022/10/26 06:11:06;;;;;;;21.30;11.20;;;10.00;99.90;;;;;;5055806;28;20032;-74
2022/10/26 06:13:32;;;;;;;23.20;12.40;;;10.10;99.90;;;;;;5072009;28;20044;-74
2022/10/26 06:16:05;;;;;;;20.48;10.88;;;10.10;99.90;;;;;;5056460;28;20556;-75
2022/10/26 06:18:46;;;;;;;29.05;11.85;;;10.10;99.90;;;;;;5072326;28;20036;-75
2022/10/26 06:21:41;;;;;;;22.25;12.07;;;10.10;99.90;;;;;;5072607;28;20072;-75
2022/10/26 06:24:18;;;;;;;23.50;12.38;;;10.10;99.90;;;;;;5052822;28;20056;-75
2022/10/26 06:27:09;;;;;;;24.02;11.82;;;10.10;99.90;;;;;;5072512;28;20047;-75
2022/10/26 06:29:48;;;;;;;19.60;11.35;;;10.10;99.90;;;;;;5072365;28;20400;-76
2022/10/26 06:32:16;;;;;;;21.00;11.77;;;10.10;99.90;;;;;;5053669;28;20045;-76
2022/10/26 06:34:48;;;;;;;24.02;11.32;;;10.10;99.90;;;;;;5055579;28;20040;-75
2022/10/26 06:37:15;;;;;;;21.75;11.90;;;10.10;99.90;;;;;;5055544;28;20093;-76
2022/10/26 06:39:45;;;;;;;;;;;10.10;99.90;;;;;;5072628;28;20043;-76
2022/10/26 06:42:11;;;;;;;23.90;12.00;;;10.10;99.90;;;;;;5072215;28;19916;-76
2022/10/26 06:44:37;;;;;;;20.52;12.00;;;10.10;99.90;;;;;;5038766;28;20488;-76
2022/10/26 06:47:39;;;;;;;18.77;10.95;;;10.10;99.90;;;;;;5055420;28;20121;-75
2022/10/26 06:50:18;;;;;;;20.23;11.00;;;10.10;99.90;;;;;;5058678;28;20136;-75
2022/10/26 06:52:54;;;;;;;23.75;11.95;;;10.10;99.90;;;;;;5072012;28;20040;-76
2022/10/26 06:55:21;;;;;;;22.00;11.00;;;10.20;99.90;;;;;;5053284;28;20115;-75
2022/10/26 06:57:48;;;;;;;22.08;10.98;;;10.20;99.90;;;;;;5055085;28;20554;-75
2022/10/26 07:00:17;;;;;;;;;;;10.30;99.90;;;;;;5056113;28;20045;-76
2022/10/26 07:02:43;;;;;;;17.85;9.95;;;10.30;99.90;;;;;;5072203;28;20390;-75
2022/10/26 07:05:11;;;;;;;17.08;9.52;;;10.30;99.90;;;;;;5071428;28;20048;-75
2022/10/26 07:07:41;;;;;;;19.20;9.95;;;10.40;99.90;;;;;;5069576;28;20527;-75
2022/10/26 07:10:08;;;;;;;20.45;9.88;;;10.40;99.90;;;;;;5071638;28;20044;-75
2022/10/26 07:12:34;;;;;;;18.25;9.27;;;10.40;99.90;;;;;;5021328;28;20040;-75
2022/10/26 07:15:00;;;;;;;19.88;10.57;;;10.50;99.90;;;;;;5071786;28;20050;-75
2022/10/26 07:17:27;;;;;;;17.25;9.38;;;10.50;99.90;;;;;;5071114;28;20131;-76
2022/10/26 07:19:53;;;;;;;18.75;10.15;;;10.60;99.90;;;;;;5054922;28;20040;-75
2022/10/26 07:22:19;;;;;;;15.05;9.18;;;10.60;99.90;;;;;;5070969;28;20695;-75
2022/10/26 07:24:49;;;;;;;16.52;9.30;;;10.60;99.90;;;;;;5071624;28;20072;-75
2022/10/26 07:27:15;;;;;;;17.20;9.35;;;10.60;99.90;;;;;;5055235;28;20036;-75
2022/10/26 07:29:41;;;;;;;18.13;9.10;;;10.70;99.90;;;;;;5070946;28;20047;-75
2022/10/26 07:32:07;;;;;;;16.77;9.30;;;11.30;99.90;;;;;;5054833;28;20503;-76
2022/10/26 07:34:33;;;;;;;17.33;8.75;;;10.80;99.90;;;;;;5070624;28;20032;-76
2022/10/26 07:36:59;;;;;;;19.45;8.63;;;10.80;99.90;;;;;;5054487;28;20407;-75
2022/10/26 07:39:25;;;;;;;13.23;8.10;;;10.80;99.90;;;;;;5054077;28;20036;-76
2022/10/26 07:41:50;;;;;;;14.38;8.77;;;10.90;99.90;;;;;;5071116;28;20040;-75
2022/10/26 07:44:16;;;;;;;15.60;7.50;;;10.90;99.90;;;;;;5037048;28;20075;-75
2022/10/26 07:46:42;;;;;;;14.45;8.20;;;11.00;99.90;;;;;;5070839;28;20043;-75
2022/10/26 07:49:08;;;;;;;15.67;7.53;;;11.10;99.90;;;;;;5071497;28;20041;-75
2022/10/26 07:51:34;;;;;;;13.45;7.82;;;11.10;99.90;;;;;;5070552;28;20033;-76
2022/10/26 07:53:59;;;;;;;10.23;7.35;;;11.20;99.90;;;;;;5070689;28;20511;-76
2022/10/26 07:56:25;;;;;;;14.63;7.40;;;11.30;99.90;;;;;;5053833;28;20381;-75
2022/10/26 07:58:54;;;;;;;13.93;7.53;;;11.40;99.90;;;;;;5054148;28;20044;-76
2022/10/26 08:01:20;;;;;;;14.43;7.35;;;11.50;99.90;;;;;;5051754;28;20040;-76
2022/10/26 08:03:46;;;;;;;10.25;7.03;;;11.60;99.90;;;;;;5070678;28;20484;-75
2022/10/26 08:06:12;;;;;;;12.20;7.40;;;11.70;99.90;;;;;;5070064;28;20049;-75
2022/10/26 08:08:38;;;;;;;13.77;6.95;;;11.80;99.90;;;;;;5069697;28;20039;-76
2022/10/26 08:11:04;;;;;;;14.00;7.07;;;12.00;99.90;;;;;;5070823;28;20044;-75
2022/10/26 08:13:31;;;;;;;10.57;6.85;;;12.10;99.90;;;;;;5053644;28;20428;-75
2022/10/26 08:16:01;;;;;;;11.55;6.85;;;12.20;99.90;;;;;;5070424;28;20040;-75
2022/10/26 08:18:27;;;;;;;16.90;7.05;;;12.30;99.90;;;;;;5070045;28;20028;-76
2022/10/26 08:20:53;;;;;;;9.38;5.43;;;12.30;99.90;;;;;;5037438;28;20651;-75
2022/10/26 08:23:19;;;;;;;11.45;6.30;;;12.40;99.90;;;;;;5070574;28;20052;-76
2022/10/26 08:25:45;;;;;;;9.98;6.05;;;12.60;99.90;;;;;;5070046;28;20038;-76
2022/10/26 08:28:10;;;;;;;9.75;5.63;;;12.70;99.90;;;;;;5070197;28;20115;-76
2022/10/26 08:30:36;;;;;;;10.43;5.30;;;12.90;99.90;;;;;;5070042;28;20081;-76
2022/10/26 08:33:04;;;;;;;9.20;4.80;;;13.20;99.90;;;;;;5070556;28;20029;-75
2022/10/26 08:35:31;;;;;;;8.32;4.95;;;13.80;99.90;;;;;;5069572;28;20093;-75
2022/10/26 08:37:57;;;;;;;9.52;5.20;;;14.80;99.90;;;;;;5070184;28;20693;-76
2022/10/26 08:40:30;;;;;;;5.88;3.60;;;15.80;99.90;;;;;;5070087;28;20036;-76
2022/10/26 08:43:16;;;;;;;6.75;3.60;;;16.90;99.90;;;;;;5069913;28;20063;-76
2022/10/26 08:46:01;;;;;;;6.68;3.00;;;18.00;99.90;;;;;;5021489;28;20076;-76
2022/10/26 08:48:32;;;;;;;4.72;3.13;;;18.80;99.90;;;;;;5068301;28;20061;-76
2022/10/26 08:51:06;;;;;;;5.40;2.70;;;19.20;99.90;;;;;;5053601;28;20047;-76
2022/10/26 08:53:40;;;;;;;5.30;2.45;;;19.40;99.90;;;;;;5069669;28;20493;-76
2022/10/26 08:56:19;;;;;;;5.35;2.30;;;19.80;99.90;;;;;;5052888;28;20095;-76
2022/10/26 08:58:50;;;;;;;5.28;2.60;;;20.10;99.90;;;;;;5068195;28;20070;-76
2022/10/26 09:01:17;;;;;;;5.28;2.20;;;20.50;99.90;;;;;;5050668;28;20115;-76
2022/10/26 09:03:42;;;;;;;6.55;2.67;;;20.80;99.90;;;;;;5068661;28;20040;-76
2022/10/26 09:06:56;;;;;;;6.25;2.25;;;21.30;99.90;;;;;;5052516;28;20503;-76
2022/10/26 09:09:35;;;;;;;5.32;2.40;;;21.60;99.90;;;;;;5046269;28;20046;-76
2022/10/26 09:12:38;;;;;;;8.13;2.40;;;21.90;99.90;;;;;;5067736;28;20423;-76
2022/10/26 09:15:03;;;;;;;6.15;2.15;;;21.90;99.90;;;;;;5068432;28;20079;-75
2022/10/26 09:17:56;;;;;;;3.88;1.73;;;22.10;99.90;;;;;;5069307;28;20504;-75
2022/10/26 09:20:55;;;;;;;4.25;2.15;;;22.10;99.90;;;;;;5054494;28;20044;-75
2022/10/26 09:23:21;;;;;;;4.00;1.85;;;21.90;99.90;;;;;;5073488;28;20068;-75
2022/10/26 09:25:57;;;;;;;4.65;2.10;;;21.30;99.90;;;;;;5057007;28;20121;-75
2022/10/26 09:28:25;;;;;;;;;;;21.60;99.90;;;;;;5074025;28;20035;-75
2022/10/26 09:30:51;;;;;;;3.70;1.88;;;21.80;99.90;;;;;;5056896;28;20372;-75
2022/10/26 09:33:21;;;;;;;6.00;2.00;;;22.00;99.90;;;;;;5056922;28;20213;-76
2022/10/26 09:36:07;;;;;;;5.40;1.98;;;22.60;99.90;;;;;;5054535;28;20056;-75
2022/10/26 09:39:17;;;;;;;5.50;1.80;;;23.20;99.90;;;;;;5055770;28;20059;-76
2022/10/26 09:41:57;;;;;;;3.33;1.95;;;23.30;99.90;;;;;;5062998;28;20404;-75
2022/10/26 09:44:46;;;;;;;5.47;1.95;;;22.90;99.90;;;;;;5071916;28;20051;-75
2022/10/26 09:47:29;;;;;;;4.75;1.80;;;23.10;99.90;;;;;;5054268;28;20085;-75
2022/10/26 09:50:17;;;;;;;5.40;1.83;;;23.30;99.90;;;;;;5071827;28;20032;-76
2022/10/26 09:52:43;;;;;;;4.95;1.90;;;23.50;99.90;;;;;;5073047;28;20036;-75
2022/10/26 09:55:12;;;;;;;;;;;23.80;99.90;;;;;;5056943;28;20098;-75
2022/10/26 09:57:44;;;;;;;3.60;1.67;;;23.90;99.90;;;;;;5073178;28;20450;-75
2022/10/26 10:00:18;;;;;;;5.15;1.60;;;23.80;99.90;;;;;;5071303;28;20059;-76
2022/10/26 10:02:55;;;;;;;4.38;1.48;;;24.10;99.90;;;;;;5054505;28;20419;-75
2022/10/26 10:05:27;;;;;;;5.32;2.00;;;24.10;99.90;;;;;;5072641;28;20080;-75
2022/10/26 10:08:17;;;;;;;3.67;1.75;;;24.40;99.90;;;;;;5055969;28;20037;-76
2022/10/26 10:11:04;;;;;;;5.65;1.70;;;24.70;99.90;;;;;;5072977;28;20394;-76
2022/10/26 10:13:32;;;;;;;4.72;1.80;;;24.80;99.90;;;;;;5072557;28;20024;-76
2022/10/26 10:16:10;;;;;;;6.00;2.20;;;24.80;99.90;;;;;;5072748;28;20047;-75
2022/10/26 10:18:38;;;;;;;4.53;1.75;;;24.50;99.90;;;;;;5070661;28;20401;-75
2022/10/26 10:21:05;;;;;;;2.78;1.60;;;24.70;99.90;;;;;;5055908;28;20048;-75
2022/10/26 10:23:36;;;;;;;4.00;1.65;;;24.10;99.90;;;;;;5072482;28;20049;-75
2022/10/26 10:26:04;;;;;;;4.53;2.22;;;23.80;99.90;;;;;;5072449;28;20455;-75
2022/10/26 10:28:29;;;;;;;5.25;1.92;;;23.50;99.90;;;;;;5072061;28;20025;-75
2022/10/26 10:30:59;;;;;;;;;;;23.10;99.90;;;;;;5055931;28;20098;-76
2022/10/26 10:33:41;;;;;;;4.15;1.85;;;22.80;99.90;;;;;;5071798;28;20364;-75
2022/10/26 10:36:10;;;;;;;6.15;1.95;;;22.50;99.90;;;;;;5073482;28;20562;-76
2022/10/26 10:38:38;;;;;;;4.43;2.10;;;22.40;99.90;;;;;;5055433;28;20451;-75
2022/10/26 10:41:05;;;;;;;5.57;2.00;;;22.10;99.90;;;;;;5072207;28;20036;-75
2022/10/26 10:43:32;;;;;;;5.65;1.80;;;21.80;99.90;;;;;;5071905;28;20032;-75
2022/10/26 10:45:58;;;;;;;4.10;1.92;;;21.30;99.90;;;;;;5055619;28;20119;-75
2022/10/26 10:48:25;;;;;;;;;;;21.10;99.90;;;;;;5072356;28;20040;-75
2022/10/26 10:50:56;;;;;;;3.10;1.90;;;20.70;99.90;;;;;;5071970;28;20361;-75
2022/10/26 10:53:23;;;;;;;4.85;1.65;;;20.50;99.90;;;;;;5072345;28;20039;-75
2022/10/26 10:56:07;;;;;;;4.65;2.05;;;20.50;99.90;;;;;;5071697;28;20134;-75
2022/10/26 10:59:09;;;;;;;4.88;1.92;;;20.20;99.90;;;;;;5068574;28;20365;-75
2022/10/26 11:01:46;;;;;;;6.10;1.85;;;20.20;99.90;;;;;;5070299;28;20098;-75
2022/10/26 11:04:42;;;;;;;5.63;2.00;;;20.10;99.90;;;;;;5070843;28;20782;-74
2022/10/26 11:07:12;;;;;;;5.18;1.98;;;19.90;99.90;;;;;;5083571;28;20048;-75
2022/10/26 11:09:42;;;;;;;5.00;1.67;;;20.00;99.90;;;;;;5053983;28;20040;-75
2022/10/26 11:12:28;;;;;;;4.68;1.67;;;20.20;99.90;;;;;;5052912;28;20055;-74
2022/10/26 11:15:15;;;;;;;5.53;1.90;;;20.60;99.90;;;;;;5070096;28;20555;-75
2022/10/26 11:18:21;;;;;;;3.80;1.80;;;21.10;99.90;;;;;;5052075;28;20594;-74
2022/10/26 11:20:52;;;;;;;6.22;1.75;;;21.70;99.90;;;;;;5069812;28;20358;-75
2022/10/26 11:23:30;;;;;;;6.55;2.30;;;21.90;99.90;;;;;;5068954;28;20040;-74
2022/10/26 11:26:03;;;;;;;4.72;1.80;;;22.30;99.90;;;;;;5051900;28;20866;-74
2022/10/26 11:28:56;;;;;;;5.95;1.83;;;22.70;99.90;;;;;;5070447;28;20044;-76
2022/10/26 11:31:33;;;;;;;3.50;1.90;;;22.80;99.90;;;;;;5052859;28;20041;-74
2022/10/26 11:34:17;;;;;;;7.63;2.05;;;22.70;99.90;;;;;;5069254;28;20036;-75
2022/10/26 11:36:45;;;;;;;4.75;2.05;;;22.80;99.90;;;;;;5070240;28;20094;-74
2022/10/26 11:39:24;;;;;;;3.80;1.73;;;23.00;99.90;;;;;;5070922;28;20048;-74
2022/10/26 11:42:12;;;;;;;5.13;1.77;;;23.20;99.90;;;;;;5070144;28;20044;-74
2022/10/26 11:44:49;;;;;;;4.55;2.00;;;23.70;99.90;;;;;;5066571;28;20101;-74
2022/10/26 11:47:21;;;;;;;;;;;24.40;99.90;;;;;;5054406;28;20048;-74
2022/10/26 11:50:12;;;;;;;5.10;1.80;;;24.90;99.90;;;;;;5069013;28;19916;-75
2022/10/26 11:52:44;;;;;;;4.07;1.70;;;25.30;99.90;;;;;;5070705;28;20373;-74
2022/10/26 11:55:10;;;;;;;3.92;1.88;;;25.90;99.90;;;;;;5071078;28;20473;-76
2022/10/26 11:57:37;;;;;;;5.90;1.60;;;26.00;99.90;;;;;;5054263;28;20079;-77
2022/10/26 12:00:17;;;;;;;5.07;1.70;;;26.00;99.90;;;;;;5070094;28;20054;-77
2022/10/26 12:03:10;;;;;;;2.95;1.38;;;26.10;99.90;;;;;;5068640;28;20139;-77
2022/10/26 12:05:39;;;;;;;4.93;2.00;;;26.00;99.90;;;;;;5059717;28;20052;-76
2022/10/26 12:08:20;;;;;;;7.60;1.60;;;26.00;99.90;;;;;;5053656;28;20036;-77
2022/10/26 12:11:26;;;;;;;2.78;1.30;;;26.10;99.90;;;;;;5053030;28;20392;-77
2022/10/26 12:14:13;;;;;;;4.68;1.60;;;25.90;99.90;;;;;;5028840;28;20047;-77
2022/10/26 12:16:57;;;;;;;;;;;25.50;99.90;;;;;;5070891;28;20040;-76
2022/10/26 12:19:45;;;;;;;3.95;1.60;;;25.20;99.90;;;;;;5052845;28;19916;-77
2022/10/26 12:22:17;;;;;;;6.00;1.63;;;24.70;99.90;;;;;;5052020;28;20040;-76
2022/10/26 12:24:45;;;;;;;6.18;1.75;;;24.00;99.90;;;;;;5070168;28;20041;-77
2022/10/26 12:27:31;;;;;;;2.92;1.40;;;23.60;99.90;;;;;;5054349;28;20041;-77
2022/10/26 12:30:31;;;;;;;3.23;1.40;;;23.30;99.90;;;;;;5069447;28;20545;-78
2022/10/26 12:32:59;;;;;;;4.32;1.60;;;23.70;99.90;;;;;;5057387;28;20349;-78
2022/10/26 12:35:33;;;;;;;3.40;1.50;;;24.40;99.90;;;;;;5053852;28;20037;-78
2022/10/26 12:38:00;;;;;;;5.90;1.77;;;25.10;99.90;;;;;;5053852;28;20072;-77
2022/10/26 12:40:32;;;;;;;4.97;1.80;;;25.30;99.90;;;;;;5070136;28;20044;-78
2022/10/26 12:43:17;;;;;;;4.32;1.83;;;24.70;99.90;;;;;;5053843;28;20037;-78
2022/10/26 12:45:45;;;;;;;4.93;1.90;;;23.80;99.90;;;;;;5043078;28;20045;-78
2022/10/26 12:48:24;;;;;;;8.52;1.98;;;23.30;99.90;;;;;;5054048;28;20404;-78
2022/10/26 12:50:51;;;;;;;5.18;2.10;;;22.80;99.90;;;;;;5051577;28;20063;-78
2022/10/26 12:53:21;;;;;;;7.97;2.60;;;22.30;99.90;;;;;;5036927;28;20115;-77
2022/10/26 12:56:13;;;;;;;6.13;2.08;;;22.00;99.90;;;;;;5036488;28;20046;-78
2022/10/26 12:58:57;;;;;;;4.55;2.35;;;21.80;99.90;;;;;;5050671;28;20131;-78
2022/10/26 13:01:57;;;;;;;3.85;2.00;;;21.50;99.90;;;;;;5069960;28;20029;-78
2022/10/26 13:04:36;;;;;;;5.97;2.38;;;21.50;99.90;;;;;;5048282;28;20066;-78
2022/10/26 13:07:16;;;;;;;4.70;2.28;;;21.40;99.90;;;;;;5052324;28;20048;-78
2022/10/26 13:10:04;;;;;;;4.35;1.90;;;21.50;99.90;;;;;;5070225;28;20495;-78